x

Matinicus Rock, Me (mism1) Weather Station

2:00 - Wed 28th Sep 2016 All times are EDT. -4 hours from GMT.

  • Wind
    23mph, 25mph gusts
  • Aire Temp 54°f
  • Sea Pressure 1025.2mb
  • Matinicus Rock, Me
  • Matinicus Rock, Me

More Historic Weather Station data

Upgrade to MSW Pro to gain access to the past 30 days of data for over 8000 Wavebouys and Weather Stations around the globe.

Join Pro

Comparision Forecast

View Surf forecast
   
mié 09/28 2:00 23 25 mph 1025.2mb 54f
1:00 28 29 mph 1024.9mb 53f
12:00 28 30 mph 1025.1mb 53f
11:00 25 28 mph 1025.2mb 52f
10:00 26 30 mph 1024.9mb 51f
9:00 26 29 mph 1024.4mb 51f
8:00 25 26 mph 1023.7mb 52f
7:00 20 25 mph 1022.9mb 52f
6:00 23 26 mph 1021.8mb 53f
5:00 23 26 mph 1021.2mb 53f
4:00 22 24 mph 1020.5mb 53f
3:00 22 24 mph 1019.9mb 53f
2:00 21 22 mph 1019.6mb 53f
1:00 24 25 mph 1019.1mb 55f
12:00 22 23 mph 1018.6mb 55f
mar 09/27 11:00 24 25 mph 1017.6mb 55f
10:00 15 16 mph 1017.1mb 56f
9:00 16 18 mph 1015.7mb 56f
8:00 17 18 mph 1014.8mb 57f
7:00 9 10 mph 1014mb 58f
6:00 14
mph
1013.5mb 58f
5:00 11
mph
1012.9mb 59f
4:00 9 10 mph 1011.9mb 59f
3:00 10 13 mph 1011.1mb 58f
2:00 7
mph
1011.5mb 58f
1:00 2
mph
1011.2mb 60f
12:00 3 5 mph 1011.8mb 57f
11:00 11
mph
1012.2mb 57f
10:00 15 16 mph 1012.5mb 58f
9:00 14 15 mph 1012.4mb 57f
8:00 17 18 mph 1012.5mb 57f
7:00 26 30 mph 1012.4mb 57f
6:00 23 25 mph 1012.3mb 58f
5:00 23 24 mph 1012.8mb 58f
4:00 23 24 mph 1013.2mb 58f
3:00 16 17 mph 1014.1mb 57f
2:00 18 20 mph 1014.9mb 57f
1:00 22 23 mph 1015.5mb 58f
12:00 20 22 mph 1016.3mb 57f
lun 09/26 11:00 16 18 mph 1016.9mb 56f
10:00 16 18 mph 1017.5mb 55f
9:00 14 15 mph 1017.7mb 55f
8:00 16 17 mph 1018mb 55f
7:00 16 17 mph 1018.4mb 55f
6:00 18 21 mph 1018.6mb 55f
5:00 18 20 mph 1018.7mb 55f
4:00 20 21 mph 1019.1mb 54f
3:00 16 17 mph 1019.7mb 54f
2:00 7 9 mph 1019.7mb 54f
1:00 6
mph
1020.7mb 54f
12:00 3 5 mph 1021.6mb 54f
11:00 6 7 mph 1021.7mb 53f
10:00 9 10 mph 1021.8mb 52f
9:00 8 9 mph 1021.5mb 52f
8:00 13 14 mph 1021.6mb 51f
7:00 14 16 mph 1021.4mb 51f
6:00 18 20 mph 1020.8mb 51f
5:00 20 21 mph 1020.4mb 51f
4:00 17 18 mph 1020.4mb 51f
3:00 22 24 mph 1020.3mb 51f
2:00 21 24 mph 1020.5mb 51f
1:00 20 22 mph 1020.1mb 53f
12:00 21 23 mph 1020.1mb 53f
dom 09/25 11:00 20 21 mph 1020mb 54f
10:00 21 23 mph 1020mb 54f
9:00 22 25 mph 1019.7mb 55f
8:00 24 26 mph 1019.1mb 56f
7:00 23 25 mph 1018.2mb 56f
6:00 25 28 mph 1017.3mb 56f
5:00 23 25 mph 1016.7mb 57f
4:00 26 29 mph 1016.3mb 56f
3:00 26 31 mph 1016.2mb 56f
2:00 24 26 mph 1016.2mb 56f
1:00 9 11 mph 1016.8mb 55f
12:00 20 23 mph 1016.7mb 53f
11:00 20 23 mph 1017.1mb 51f
10:00 21 22 mph 1017.3mb 50f
9:00 24 25 mph 1017.1mb 49f
8:00 25 26 mph 1016.8mb 50f
7:00 28 29 mph 1016.6mb 50f
6:00 22 24 mph 1016.8mb 49f
5:00 25 29 mph 1016.4mb 50f
4:00 24 25 mph 1016.4mb 51f
3:00 21 23 mph 1016.5mb 51f
2:00 23 24 mph 1016.5mb 51f
1:00 24 26 mph 1016.4mb 52f
12:00 32 34 mph 1016.2mb 53f
sáb 09/24 11:00 24 26 mph 1016.3mb 55f
10:00 16 18 mph 1016.1mb 56f
9:00 16 17 mph 1015.8mb 58f
8:00 10 11 mph 1016.2mb 58f